sensor_id;sensor_type;location;lat;lon;timestamp;temperature;humidity
20438;DHT22;17436;50.338;8.810;2022-10-22T00:01:49;15.20;99.90
20438;DHT22;17436;50.338;8.810;2022-10-22T00:04:15;15.30;99.90
20438;DHT22;17436;50.338;8.810;2022-10-22T00:06:42;15.30;99.90
20438;DHT22;17436;50.338;8.810;2022-10-22T00:09:09;15.30;99.90
20438;DHT22;17436;50.338;8.810;2022-10-22T00:11:38;15.20;99.90
20438;DHT22;17436;50.338;8.810;2022-10-22T00:14:05;15.20;99.90
20438;DHT22;17436;50.338;8.810;2022-10-22T00:16:31;15.30;99.90
20438;DHT22;17436;50.338;8.810;2022-10-22T00:18:58;15.30;99.90
20438;DHT22;17436;50.338;8.810;2022-10-22T00:21:25;15.30;99.90
20438;DHT22;17436;50.338;8.810;2022-10-22T00:23:53;15.40;99.90
20438;DHT22;17436;50.338;8.810;2022-10-22T00:26:20;15.40;99.90
20438;DHT22;17436;50.338;8.810;2022-10-22T00:28:48;15.40;99.90
20438;DHT22;17436;50.338;8.810;2022-10-22T00:31:15;15.40;99.90
20438;DHT22;17436;50.338;8.810;2022-10-22T00:33:45;15.40;99.90
20438;DHT22;17436;50.338;8.810;2022-10-22T00:36:12;15.30;99.90
20438;DHT22;17436;50.338;8.810;2022-10-22T00:38:39;15.40;99.90
20438;DHT22;17436;50.338;8.810;2022-10-22T00:41:07;15.30;99.90
20438;DHT22;17436;50.338;8.810;2022-10-22T00:46:17;15.20;99.90
20438;DHT22;17436;50.338;8.810;2022-10-22T00:48:43;15.20;99.90
20438;DHT22;17436;50.338;8.810;2022-10-22T00:51:10;15.20;99.90
20438;DHT22;17436;50.338;8.810;2022-10-22T00:53:40;15.20;99.90
20438;DHT22;17436;50.338;8.810;2022-10-22T00:56:08;15.20;99.90
20438;DHT22;17436;50.338;8.810;2022-10-22T00:58:38;15.20;99.90
20438;DHT22;17436;50.338;8.810;2022-10-22T01:01:05;15.30;99.90
20438;DHT22;17436;50.338;8.810;2022-10-22T01:03:35;15.20;99.90
20438;DHT22;17436;50.338;8.810;2022-10-22T01:06:04;15.20;99.90
20438;DHT22;17436;50.338;8.810;2022-10-22T01:08:45;15.10;99.90
20438;DHT22;17436;50.338;8.810;2022-10-22T01:11:20;15.10;99.90
20438;DHT22;17436;50.338;8.810;2022-10-22T01:13:52;15.20;99.90
20438;DHT22;17436;50.338;8.810;2022-10-22T01:16:28;15.10;99.90
20438;DHT22;17436;50.338;8.810;2022-10-22T01:19:09;15.20;99.90
20438;DHT22;17436;50.338;8.810;2022-10-22T01:21:43;15.20;99.90
20438;DHT22;17436;50.338;8.810;2022-10-22T01:24:30;15.20;99.90
20438;DHT22;17436;50.338;8.810;2022-10-22T01:27:15;15.40;99.90
20438;DHT22;17436;50.338;8.810;2022-10-22T01:29:50;15.50;99.90
20438;DHT22;17436;50.338;8.810;2022-10-22T01:32:22;15.50;99.90
20438;DHT22;17436;50.338;8.810;2022-10-22T01:34:55;15.60;99.90
20438;DHT22;17436;50.338;8.810;2022-10-22T01:37:27;15.60;99.90
20438;DHT22;17436;50.338;8.810;2022-10-22T01:39:57;15.50;99.90
20438;DHT22;17436;50.338;8.810;2022-10-22T01:42:27;15.50;99.90
20438;DHT22;17436;50.338;8.810;2022-10-22T01:44:57;15.50;99.90
20438;DHT22;17436;50.338;8.810;2022-10-22T01:47:35;15.50;99.90
20438;DHT22;17436;50.338;8.810;2022-10-22T01:50:27;15.60;99.90
20438;DHT22;17436;50.338;8.810;2022-10-22T01:53:10;15.60;99.90
20438;DHT22;17436;50.338;8.810;2022-10-22T01:55:47;15.50;99.90
20438;DHT22;17436;50.338;8.810;2022-10-22T01:58:24;15.50;99.90
20438;DHT22;17436;50.338;8.810;2022-10-22T02:01:04;15.50;99.90
20438;DHT22;17436;50.338;8.810;2022-10-22T02:03:35;15.50;99.90
20438;DHT22;17436;50.338;8.810;2022-10-22T02:06:08;15.60;99.90
20438;DHT22;17436;50.338;8.810;2022-10-22T02:08:38;15.40;99.90
20438;DHT22;17436;50.338;8.810;2022-10-22T02:11:06;15.40;99.90
20438;DHT22;17436;50.338;8.810;2022-10-22T02:13:37;15.50;99.90
20438;DHT22;17436;50.338;8.810;2022-10-22T02:16:08;15.50;99.90
20438;DHT22;17436;50.338;8.810;2022-10-22T02:18:39;15.50;99.90
20438;DHT22;17436;50.338;8.810;2022-10-22T02:21:07;15.50;99.90
20438;DHT22;17436;50.338;8.810;2022-10-22T02:23:34;15.60;99.90
20438;DHT22;17436;50.338;8.810;2022-10-22T02:26:06;15.60;99.90
20438;DHT22;17436;50.338;8.810;2022-10-22T02:28:36;15.50;99.90
20438;DHT22;17436;50.338;8.810;2022-10-22T02:31:10;15.50;99.90
20438;DHT22;17436;50.338;8.810;2022-10-22T02:33:42;15.40;99.90
20438;DHT22;17436;50.338;8.810;2022-10-22T02:36:11;15.20;99.90
20438;DHT22;17436;50.338;8.810;2022-10-22T02:38:39;15.20;99.90
20438;DHT22;17436;50.338;8.810;2022-10-22T02:41:07;15.10;99.90
20438;DHT22;17436;50.338;8.810;2022-10-22T02:43:39;15.10;99.90
20438;DHT22;17436;50.338;8.810;2022-10-22T02:46:08;15.20;99.90
20438;DHT22;17436;50.338;8.810;2022-10-22T02:48:35;15.20;99.90
20438;DHT22;17436;50.338;8.810;2022-10-22T02:51:02;15.30;99.90
20438;DHT22;17436;50.338;8.810;2022-10-22T02:53:29;15.50;99.90
20438;DHT22;17436;50.338;8.810;2022-10-22T02:55:57;15.50;99.90
20438;DHT22;17436;50.338;8.810;2022-10-22T02:58:24;15.50;99.90
20438;DHT22;17436;50.338;8.810;2022-10-22T03:00:51;15.40;99.90
20438;DHT22;17436;50.338;8.810;2022-10-22T03:03:19;15.50;99.90
20438;DHT22;17436;50.338;8.810;2022-10-22T03:05:45;15.50;99.90
20438;DHT22;17436;50.338;8.810;2022-10-22T03:08:12;15.50;99.90
20438;DHT22;17436;50.338;8.810;2022-10-22T03:10:39;15.50;99.90
20438;DHT22;17436;50.338;8.810;2022-10-22T03:13:05;15.50;99.90
20438;DHT22;17436;50.338;8.810;2022-10-22T03:15:32;15.50;99.90
20438;DHT22;17436;50.338;8.810;2022-10-22T03:18:00;15.50;99.90
20438;DHT22;17436;50.338;8.810;2022-10-22T03:20:29;15.50;99.90
20438;DHT22;17436;50.338;8.810;2022-10-22T03:22:56;15.60;99.90
20438;DHT22;17436;50.338;8.810;2022-10-22T03:25:24;15.50;99.90
20438;DHT22;17436;50.338;8.810;2022-10-22T03:27:53;15.40;99.90
20438;DHT22;17436;50.338;8.810;2022-10-22T03:30:21;15.30;99.90
20438;DHT22;17436;50.338;8.810;2022-10-22T03:32:55;15.40;99.90
20438;DHT22;17436;50.338;8.810;2022-10-22T03:35:22;15.40;99.90
20438;DHT22;17436;50.338;8.810;2022-10-22T03:37:50;15.40;99.90
20438;DHT22;17436;50.338;8.810;2022-10-22T03:40:18;15.50;99.90
20438;DHT22;17436;50.338;8.810;2022-10-22T03:42:45;15.40;99.90
20438;DHT22;17436;50.338;8.810;2022-10-22T03:45:12;15.40;99.90
20438;DHT22;17436;50.338;8.810;2022-10-22T03:47:38;15.40;99.90
20438;DHT22;17436;50.338;8.810;2022-10-22T03:50:06;15.40;99.90
20438;DHT22;17436;50.338;8.810;2022-10-22T03:52:35;15.40;99.90
20438;DHT22;17436;50.338;8.810;2022-10-22T03:55:04;15.50;99.90
20438;DHT22;17436;50.338;8.810;2022-10-22T03:57:31;15.50;99.90
20438;DHT22;17436;50.338;8.810;2022-10-22T03:59:58;15.40;99.90
20438;DHT22;17436;50.338;8.810;2022-10-22T04:02:26;15.30;99.90
20438;DHT22;17436;50.338;8.810;2022-10-22T04:04:52;15.40;99.90
20438;DHT22;17436;50.338;8.810;2022-10-22T04:07:19;15.50;99.90
20438;DHT22;17436;50.338;8.810;2022-10-22T04:09:46;15.40;99.90
20438;DHT22;17436;50.338;8.810;2022-10-22T04:12:14;15.40;99.90
20438;DHT22;17436;50.338;8.810;2022-10-22T04:14:41;15.30;99.90
20438;DHT22;17436;50.338;8.810;2022-10-22T04:17:07;15.30;99.90
20438;DHT22;17436;50.338;8.810;2022-10-22T04:19:34;15.40;99.90
20438;DHT22;17436;50.338;8.810;2022-10-22T04:22:01;15.40;99.90
20438;DHT22;17436;50.338;8.810;2022-10-22T04:24:29;15.30;99.90
20438;DHT22;17436;50.338;8.810;2022-10-22T04:26:56;15.40;99.90
20438;DHT22;17436;50.338;8.810;2022-10-22T04:29:24;15.40;99.90
20438;DHT22;17436;50.338;8.810;2022-10-22T04:31:51;15.30;99.90
20438;DHT22;17436;50.338;8.810;2022-10-22T04:34:18;15.40;99.90
20438;DHT22;17436;50.338;8.810;2022-10-22T04:36:45;15.40;99.90
20438;DHT22;17436;50.338;8.810;2022-10-22T04:39:11;15.40;99.90
20438;DHT22;17436;50.338;8.810;2022-10-22T04:41:38;15.30;99.90
20438;DHT22;17436;50.338;8.810;2022-10-22T04:44:06;15.20;99.90
20438;DHT22;17436;50.338;8.810;2022-10-22T04:46:34;15.30;99.90
20438;DHT22;17436;50.338;8.810;2022-10-22T04:49:02;15.40;99.90
20438;DHT22;17436;50.338;8.810;2022-10-22T04:51:29;15.30;99.90
20438;DHT22;17436;50.338;8.810;2022-10-22T04:53:57;15.30;99.90
20438;DHT22;17436;50.338;8.810;2022-10-22T04:56:26;15.30;99.90
20438;DHT22;17436;50.338;8.810;2022-10-22T04:58:55;15.20;99.90
20438;DHT22;17436;50.338;8.810;2022-10-22T05:01:24;15.20;99.90
20438;DHT22;17436;50.338;8.810;2022-10-22T05:03:53;15.10;99.90
20438;DHT22;17436;50.338;8.810;2022-10-22T05:06:21;15.10;99.90
20438;DHT22;17436;50.338;8.810;2022-10-22T05:08:51;15.20;99.90
20438;DHT22;17436;50.338;8.810;2022-10-22T05:11:20;15.30;99.90
20438;DHT22;17436;50.338;8.810;2022-10-22T05:13:47;15.30;99.90
20438;DHT22;17436;50.338;8.810;2022-10-22T05:16:14;15.30;99.90
20438;DHT22;17436;50.338;8.810;2022-10-22T05:18:42;15.30;99.90
20438;DHT22;17436;50.338;8.810;2022-10-22T05:21:12;15.30;99.90
20438;DHT22;17436;50.338;8.810;2022-10-22T05:23:39;15.10;99.90
20438;DHT22;17436;50.338;8.810;2022-10-22T05:26:08;15.20;99.90
20438;DHT22;17436;50.338;8.810;2022-10-22T05:28:35;15.30;99.90
20438;DHT22;17436;50.338;8.810;2022-10-22T05:31:03;15.20;99.90
20438;DHT22;17436;50.338;8.810;2022-10-22T05:33:31;14.90;99.90
20438;DHT22;17436;50.338;8.810;2022-10-22T05:35:59;14.80;99.90
20438;DHT22;17436;50.338;8.810;2022-10-22T05:38:27;14.80;99.90
20438;DHT22;17436;50.338;8.810;2022-10-22T05:41:05;14.90;99.90
20438;DHT22;17436;50.338;8.810;2022-10-22T05:43:32;15.00;99.90
20438;DHT22;17436;50.338;8.810;2022-10-22T05:46:00;14.90;99.90
20438;DHT22;17436;50.338;8.810;2022-10-22T05:48:28;14.90;99.90
20438;DHT22;17436;50.338;8.810;2022-10-22T05:50:55;15.00;99.90
20438;DHT22;17436;50.338;8.810;2022-10-22T05:53:30;15.00;99.90
20438;DHT22;17436;50.338;8.810;2022-10-22T05:55:59;15.00;99.90
20438;DHT22;17436;50.338;8.810;2022-10-22T05:58:26;15.00;99.90
20438;DHT22;17436;50.338;8.810;2022-10-22T06:00:53;15.00;99.90
20438;DHT22;17436;50.338;8.810;2022-10-22T06:03:20;15.00;99.90
20438;DHT22;17436;50.338;8.810;2022-10-22T06:05:46;15.00;99.90
20438;DHT22;17436;50.338;8.810;2022-10-22T06:08:13;15.00;99.90
20438;DHT22;17436;50.338;8.810;2022-10-22T06:10:42;15.00;99.90
20438;DHT22;17436;50.338;8.810;2022-10-22T06:13:09;15.00;99.90
20438;DHT22;17436;50.338;8.810;2022-10-22T06:15:36;15.00;99.90
20438;DHT22;17436;50.338;8.810;2022-10-22T06:18:03;15.00;99.90
20438;DHT22;17436;50.338;8.810;2022-10-22T06:20:32;15.10;99.90
20438;DHT22;17436;50.338;8.810;2022-10-22T06:22:59;15.00;99.90
20438;DHT22;17436;50.338;8.810;2022-10-22T06:25:26;15.00;99.90
20438;DHT22;17436;50.338;8.810;2022-10-22T06:27:55;15.00;99.90
20438;DHT22;17436;50.338;8.810;2022-10-22T06:30:21;15.10;99.90
20438;DHT22;17436;50.338;8.810;2022-10-22T06:32:48;15.00;99.90
20438;DHT22;17436;50.338;8.810;2022-10-22T06:35:15;15.00;99.90
20438;DHT22;17436;50.338;8.810;2022-10-22T06:37:42;15.00;99.90
20438;DHT22;17436;50.338;8.810;2022-10-22T06:40:10;14.90;99.90
20438;DHT22;17436;50.338;8.810;2022-10-22T06:42:36;15.00;99.90
20438;DHT22;17436;50.338;8.810;2022-10-22T06:45:08;15.00;99.90
20438;DHT22;17436;50.338;8.810;2022-10-22T06:47:35;15.10;99.90
20438;DHT22;17436;50.338;8.810;2022-10-22T06:50:01;15.10;99.90
20438;DHT22;17436;50.338;8.810;2022-10-22T06:52:28;15.10;99.90
20438;DHT22;17436;50.338;8.810;2022-10-22T06:54:55;15.30;99.90
20438;DHT22;17436;50.338;8.810;2022-10-22T06:57:21;15.40;99.90
20438;DHT22;17436;50.338;8.810;2022-10-22T06:59:48;15.20;99.90
20438;DHT22;17436;50.338;8.810;2022-10-22T07:02:16;15.40;99.90
20438;DHT22;17436;50.338;8.810;2022-10-22T07:04:43;15.70;99.90
20438;DHT22;17436;50.338;8.810;2022-10-22T07:07:10;16.00;99.90
20438;DHT22;17436;50.338;8.810;2022-10-22T07:09:39;16.10;99.90
20438;DHT22;17436;50.338;8.810;2022-10-22T07:12:06;16.20;99.90
20438;DHT22;17436;50.338;8.810;2022-10-22T07:14:33;16.50;99.90
20438;DHT22;17436;50.338;8.810;2022-10-22T07:16:59;16.80;99.90
20438;DHT22;17436;50.338;8.810;2022-10-22T07:19:28;16.90;99.90
20438;DHT22;17436;50.338;8.810;2022-10-22T07:21:56;17.00;99.90
20438;DHT22;17436;50.338;8.810;2022-10-22T07:24:22;17.10;99.90
20438;DHT22;17436;50.338;8.810;2022-10-22T07:26:49;17.20;99.90
20438;DHT22;17436;50.338;8.810;2022-10-22T07:29:16;17.20;99.90
20438;DHT22;17436;50.338;8.810;2022-10-22T07:31:43;17.10;99.90
20438;DHT22;17436;50.338;8.810;2022-10-22T07:34:10;17.30;99.90
20438;DHT22;17436;50.338;8.810;2022-10-22T07:36:38;17.30;99.80
20438;DHT22;17436;50.338;8.810;2022-10-22T07:39:05;17.30;99.90
20438;DHT22;17436;50.338;8.810;2022-10-22T07:41:32;17.40;99.90
20438;DHT22;17436;50.338;8.810;2022-10-22T07:43:59;17.50;98.90
20438;DHT22;17436;50.338;8.810;2022-10-22T07:46:26;17.70;98.60
20438;DHT22;17436;50.338;8.810;2022-10-22T07:48:53;17.90;97.00
20438;DHT22;17436;50.338;8.810;2022-10-22T07:51:20;18.10;96.60
20438;DHT22;17436;50.338;8.810;2022-10-22T07:53:48;18.10;96.90
20438;DHT22;17436;50.338;8.810;2022-10-22T07:56:15;18.20;95.60
20438;DHT22;17436;50.338;8.810;2022-10-22T07:58:42;18.30;95.40
20438;DHT22;17436;50.338;8.810;2022-10-22T08:01:09;18.50;94.80
20438;DHT22;17436;50.338;8.810;2022-10-22T08:03:36;18.50;94.60
20438;DHT22;17436;50.338;8.810;2022-10-22T08:06:04;18.60;93.50
20438;DHT22;17436;50.338;8.810;2022-10-22T08:08:31;18.70;91.50
20438;DHT22;17436;50.338;8.810;2022-10-22T08:10:59;18.80;91.90
20438;DHT22;17436;50.338;8.810;2022-10-22T08:13:27;18.60;90.00
20438;DHT22;17436;50.338;8.810;2022-10-22T08:15:56;18.60;86.80
20438;DHT22;17436;50.338;8.810;2022-10-22T08:18:22;18.70;90.90
20438;DHT22;17436;50.338;8.810;2022-10-22T08:20:50;18.90;88.30
20438;DHT22;17436;50.338;8.810;2022-10-22T08:23:17;19.10;86.20
20438;DHT22;17436;50.338;8.810;2022-10-22T08:25:44;19.00;86.40
20438;DHT22;17436;50.338;8.810;2022-10-22T08:28:12;18.80;88.70
20438;DHT22;17436;50.338;8.810;2022-10-22T08:30:39;18.70;85.50
20438;DHT22;17436;50.338;8.810;2022-10-22T08:33:08;18.70;85.90
20438;DHT22;17436;50.338;8.810;2022-10-22T08:35:35;18.60;86.10
20438;DHT22;17436;50.338;8.810;2022-10-22T08:38:02;18.90;86.70
20438;DHT22;17436;50.338;8.810;2022-10-22T08:40:31;19.20;82.80
20438;DHT22;17436;50.338;8.810;2022-10-22T08:43:26;19.40;78.90
20438;DHT22;17436;50.338;8.810;2022-10-22T08:46:02;19.60;76.20
20438;DHT22;17436;50.338;8.810;2022-10-22T08:48:40;19.80;77.00
20438;DHT22;17436;50.338;8.810;2022-10-22T08:51:14;19.80;74.40
20438;DHT22;17436;50.338;8.810;2022-10-22T08:53:48;19.90;70.70
20438;DHT22;17436;50.338;8.810;2022-10-22T08:56:17;20.00;70.80
20438;DHT22;17436;50.338;8.810;2022-10-22T08:58:50;20.00;68.30
20438;DHT22;17436;50.338;8.810;2022-10-22T09:01:31;20.10;69.20
20438;DHT22;17436;50.338;8.810;2022-10-22T09:04:05;20.20;69.00
20438;DHT22;17436;50.338;8.810;2022-10-22T09:06:34;20.40;66.60
20438;DHT22;17436;50.338;8.810;2022-10-22T09:09:10;20.40;61.80
20438;DHT22;17436;50.338;8.810;2022-10-22T09:11:39;20.30;63.30
20438;DHT22;17436;50.338;8.810;2022-10-22T09:14:13;20.70;60.70
20438;DHT22;17436;50.338;8.810;2022-10-22T09:16:57;20.80;60.60
20438;DHT22;17436;50.338;8.810;2022-10-22T09:19:32;20.30;59.70
20438;DHT22;17436;50.338;8.810;2022-10-22T09:22:09;19.80;65.60
20438;DHT22;17436;50.338;8.810;2022-10-22T09:24:45;19.40;66.40
20438;DHT22;17436;50.338;8.810;2022-10-22T09:27:14;19.50;68.60
20438;DHT22;17436;50.338;8.810;2022-10-22T09:29:43;21.00;59.00
20438;DHT22;17436;50.338;8.810;2022-10-22T09:32:11;24.80;31.70
20438;DHT22;17436;50.338;8.810;2022-10-22T09:34:38;26.20;19.30
20438;DHT22;17436;50.338;8.810;2022-10-22T09:37:08;27.10;9.60
20438;DHT22;17436;50.338;8.810;2022-10-22T09:39:37;27.80;7.10
20438;DHT22;17436;50.338;8.810;2022-10-22T09:42:05;28.70;1.70
20438;DHT22;17436;50.338;8.810;2022-10-22T09:44:34;28.90;1.00
20438;DHT22;17436;50.338;8.810;2022-10-22T09:47:04;29.30;1.00
20438;DHT22;17436;50.338;8.810;2022-10-22T09:49:33;29.80;1.00
20438;DHT22;17436;50.338;8.810;2022-10-22T09:52:01;30.20;1.00
20438;DHT22;17436;50.338;8.810;2022-10-22T09:54:37;30.60;1.00
20438;DHT22;17436;50.338;8.810;2022-10-22T09:57:09;30.70;1.00
20438;DHT22;17436;50.338;8.810;2022-10-22T09:59:40;30.70;1.00
20438;DHT22;17436;50.338;8.810;2022-10-22T10:02:12;30.50;1.00
20438;DHT22;17436;50.338;8.810;2022-10-22T10:04:40;27.90;1.00
20438;DHT22;17436;50.338;8.810;2022-10-22T10:07:15;25.90;1.00
20438;DHT22;17436;50.338;8.810;2022-10-22T10:09:42;28.70;1.00
20438;DHT22;17436;50.338;8.810;2022-10-22T10:12:21;30.10;1.00
20438;DHT22;17436;50.338;8.810;2022-10-22T10:14:55;31.30;1.00
20438;DHT22;17436;50.338;8.810;2022-10-22T10:17:32;31.80;1.00
20438;DHT22;17436;50.338;8.810;2022-10-22T10:22:56;32.20;1.00
20438;DHT22;17436;50.338;8.810;2022-10-22T10:25:43;31.20;1.00
20438;DHT22;17436;50.338;8.810;2022-10-22T10:28:33;31.80;1.00
20438;DHT22;17436;50.338;8.810;2022-10-22T10:31:13;29.50;1.00
20438;DHT22;17436;50.338;8.810;2022-10-22T10:33:52;26.40;1.00
20438;DHT22;17436;50.338;8.810;2022-10-22T10:36:31;24.60;1.80
20438;DHT22;17436;50.338;8.810;2022-10-22T10:39:02;23.40;7.90
20438;DHT22;17436;50.338;8.810;2022-10-22T10:41:40;22.30;15.00
20438;DHT22;17436;50.338;8.810;2022-10-22T10:44:34;22.10;20.10
20438;DHT22;17436;50.338;8.810;2022-10-22T10:47:12;22.40;21.00
20438;DHT22;17436;50.338;8.810;2022-10-22T10:49:43;22.40;20.10
20438;DHT22;17436;50.338;8.810;2022-10-22T10:52:16;22.50;21.10
20438;DHT22;17436;50.338;8.810;2022-10-22T10:54:51;22.40;25.70
20438;DHT22;17436;50.338;8.810;2022-10-22T10:57:27;22.50;23.90
20438;DHT22;17436;50.338;8.810;2022-10-22T11:00:03;22.50;21.00
20438;DHT22;17436;50.338;8.810;2022-10-22T11:05:38;21.70;25.20
20438;DHT22;17436;50.338;8.810;2022-10-22T11:08:10;21.90;27.20
20438;DHT22;17436;50.338;8.810;2022-10-22T11:10:41;22.00;29.00
20438;DHT22;17436;50.338;8.810;2022-10-22T11:13:16;21.80;26.70
20438;DHT22;17436;50.338;8.810;2022-10-22T11:15:46;21.50;28.10
20438;DHT22;17436;50.338;8.810;2022-10-22T11:18:19;21.40;29.30
20438;DHT22;17436;50.338;8.810;2022-10-22T11:20:54;21.40;29.70
20438;DHT22;17436;50.338;8.810;2022-10-22T11:23:27;21.40;31.50
20438;DHT22;17436;50.338;8.810;2022-10-22T11:25:55;21.10;28.30
20438;DHT22;17436;50.338;8.810;2022-10-22T11:28:25;21.10;30.00
20438;DHT22;17436;50.338;8.810;2022-10-22T11:30:57;20.90;28.10
20438;DHT22;17436;50.338;8.810;2022-10-22T11:33:32;20.90;32.70
20438;DHT22;17436;50.338;8.810;2022-10-22T11:36:01;20.50;39.50
20438;DHT22;17436;50.338;8.810;2022-10-22T11:38:29;20.50;39.90
20438;DHT22;17436;50.338;8.810;2022-10-22T11:40:59;20.20;33.80
20438;DHT22;17436;50.338;8.810;2022-10-22T11:43:28;20.00;35.50
20438;DHT22;17436;50.338;8.810;2022-10-22T11:46:02;20.10;42.50
20438;DHT22;17436;50.338;8.810;2022-10-22T11:48:36;20.00;37.40
20438;DHT22;17436;50.338;8.810;2022-10-22T11:51:29;20.10;39.00
20438;DHT22;17436;50.338;8.810;2022-10-22T11:54:00;20.10;37.80
20438;DHT22;17436;50.338;8.810;2022-10-22T11:56:37;20.00;37.80
20438;DHT22;17436;50.338;8.810;2022-10-22T11:59:36;19.90;40.50
20438;DHT22;17436;50.338;8.810;2022-10-22T12:01:58;19.80;39.30
20438;DHT22;17436;50.338;8.810;2022-10-22T12:04:39;19.70;40.00
20438;DHT22;17436;50.338;8.810;2022-10-22T12:07:31;19.70;36.60
20438;DHT22;17436;50.338;8.810;2022-10-22T12:09:58;19.60;39.80
20438;DHT22;17436;50.338;8.810;2022-10-22T12:12:25;19.60;39.40
20438;DHT22;17436;50.338;8.810;2022-10-22T12:14:56;19.20;39.20
20438;DHT22;17436;50.338;8.810;2022-10-22T12:17:24;19.40;43.50
20438;DHT22;17436;50.338;8.810;2022-10-22T12:19:58;19.40;40.10
20438;DHT22;17436;50.338;8.810;2022-10-22T12:22:28;19.50;41.40
20438;DHT22;17436;50.338;8.810;2022-10-22T12:25:00;19.40;43.40
20438;DHT22;17436;50.338;8.810;2022-10-22T12:27:33;19.50;46.90
20438;DHT22;17436;50.338;8.810;2022-10-22T12:30:14;19.50;47.30
20438;DHT22;17436;50.338;8.810;2022-10-22T12:32:42;19.70;48.70
20438;DHT22;17436;50.338;8.810;2022-10-22T12:35:15;19.70;44.40
20438;DHT22;17436;50.338;8.810;2022-10-22T12:37:47;19.70;42.90
20438;DHT22;17436;50.338;8.810;2022-10-22T12:40:19;19.80;44.40
20438;DHT22;17436;50.338;8.810;2022-10-22T12:42:48;19.80;47.00
20438;DHT22;17436;50.338;8.810;2022-10-22T12:45:15;19.80;45.40
20438;DHT22;17436;50.338;8.810;2022-10-22T12:47:45;19.80;46.80
20438;DHT22;17436;50.338;8.810;2022-10-22T12:50:15;19.70;48.60
20438;DHT22;17436;50.338;8.810;2022-10-22T12:52:44;19.60;44.00
20438;DHT22;17436;50.338;8.810;2022-10-22T12:55:15;19.50;46.50
20438;DHT22;17436;50.338;8.810;2022-10-22T12:57:42;19.60;41.20
20438;DHT22;17436;50.338;8.810;2022-10-22T13:00:24;19.40;41.00
20438;DHT22;17436;50.338;8.810;2022-10-22T13:02:51;19.30;40.50
20438;DHT22;17436;50.338;8.810;2022-10-22T13:05:23;19.40;40.70
20438;DHT22;17436;50.338;8.810;2022-10-22T13:08:00;19.20;40.20
20438;DHT22;17436;50.338;8.810;2022-10-22T13:10:31;19.10;44.00
20438;DHT22;17436;50.338;8.810;2022-10-22T13:13:00;19.20;45.40
20438;DHT22;17436;50.338;8.810;2022-10-22T13:15:36;19.40;46.30
20438;DHT22;17436;50.338;8.810;2022-10-22T13:18:12;19.40;43.70
20438;DHT22;17436;50.338;8.810;2022-10-22T13:20:50;19.50;46.00
20438;DHT22;17436;50.338;8.810;2022-10-22T13:23:20;19.50;41.10
20438;DHT22;17436;50.338;8.810;2022-10-22T13:25:56;19.60;44.20
20438;DHT22;17436;50.338;8.810;2022-10-22T13:28:24;19.50;42.20
20438;DHT22;17436;50.338;8.810;2022-10-22T13:30:52;19.50;44.70
20438;DHT22;17436;50.338;8.810;2022-10-22T13:33:22;19.40;47.60
20438;DHT22;17436;50.338;8.810;2022-10-22T13:35:51;19.30;47.20
20438;DHT22;17436;50.338;8.810;2022-10-22T13:38:20;19.20;48.80
20438;DHT22;17436;50.338;8.810;2022-10-22T13:40:48;19.00;46.30
20438;DHT22;17436;50.338;8.810;2022-10-22T13:43:16;18.70;52.00
20438;DHT22;17436;50.338;8.810;2022-10-22T13:45:44;18.70;54.80
20438;DHT22;17436;50.338;8.810;2022-10-22T13:48:15;18.70;55.20
20438;DHT22;17436;50.338;8.810;2022-10-22T13:50:43;18.90;55.80
20438;DHT22;17436;50.338;8.810;2022-10-22T13:53:14;19.00;57.40
20438;DHT22;17436;50.338;8.810;2022-10-22T13:55:44;19.00;55.90
20438;DHT22;17436;50.338;8.810;2022-10-22T13:58:12;18.90;55.80
20438;DHT22;17436;50.338;8.810;2022-10-22T14:00:41;18.90;55.80
20438;DHT22;17436;50.338;8.810;2022-10-22T14:03:10;18.70;58.20
20438;DHT22;17436;50.338;8.810;2022-10-22T14:05:37;18.70;59.20
20438;DHT22;17436;50.338;8.810;2022-10-22T14:08:08;18.50;56.80
20438;DHT22;17436;50.338;8.810;2022-10-22T14:10:36;18.50;60.60
20438;DHT22;17436;50.338;8.810;2022-10-22T14:13:13;18.50;59.80
20438;DHT22;17436;50.338;8.810;2022-10-22T14:15:41;18.70;61.80
20438;DHT22;17436;50.338;8.810;2022-10-22T14:18:11;18.70;59.90
20438;DHT22;17436;50.338;8.810;2022-10-22T14:20:41;18.70;60.40
20438;DHT22;17436;50.338;8.810;2022-10-22T14:23:12;18.70;58.80
20438;DHT22;17436;50.338;8.810;2022-10-22T14:25:41;18.70;62.30
20438;DHT22;17436;50.338;8.810;2022-10-22T14:28:08;18.60;63.30
20438;DHT22;17436;50.338;8.810;2022-10-22T14:30:37;18.50;55.50
20438;DHT22;17436;50.338;8.810;2022-10-22T14:33:11;18.50;61.00
20438;DHT22;17436;50.338;8.810;2022-10-22T14:35:38;18.70;66.70
20438;DHT22;17436;50.338;8.810;2022-10-22T14:38:05;18.80;65.60
20438;DHT22;17436;50.338;8.810;2022-10-22T14:40:32;18.80;63.60
20438;DHT22;17436;50.338;8.810;2022-10-22T14:43:00;18.80;69.10
20438;DHT22;17436;50.338;8.810;2022-10-22T14:45:28;18.90;66.10
20438;DHT22;17436;50.338;8.810;2022-10-22T14:47:56;18.90;65.80
20438;DHT22;17436;50.338;8.810;2022-10-22T14:50:23;18.90;67.30
20438;DHT22;17436;50.338;8.810;2022-10-22T14:52:50;18.90;69.50
20438;DHT22;17436;50.338;8.810;2022-10-22T14:55:18;19.00;73.30
20438;DHT22;17436;50.338;8.810;2022-10-22T14:57:45;19.00;78.30
20438;DHT22;17436;50.338;8.810;2022-10-22T15:00:14;18.90;83.20
20438;DHT22;17436;50.338;8.810;2022-10-22T15:02:41;18.90;81.70
20438;DHT22;17436;50.338;8.810;2022-10-22T15:05:09;18.90;87.40
20438;DHT22;17436;50.338;8.810;2022-10-22T15:07:37;18.80;78.20
20438;DHT22;17436;50.338;8.810;2022-10-22T15:10:06;18.80;81.40
20438;DHT22;17436;50.338;8.810;2022-10-22T15:12:33;18.80;78.20
20438;DHT22;17436;50.338;8.810;2022-10-22T15:15:00;18.80;78.50
20438;DHT22;17436;50.338;8.810;2022-10-22T15:17:27;18.80;81.30
20438;DHT22;17436;50.338;8.810;2022-10-22T15:19:53;18.80;78.20
20438;DHT22;17436;50.338;8.810;2022-10-22T15:22:22;18.80;81.60
20438;DHT22;17436;50.338;8.810;2022-10-22T15:24:49;18.80;84.00
20438;DHT22;17436;50.338;8.810;2022-10-22T15:27:18;18.80;83.50
20438;DHT22;17436;50.338;8.810;2022-10-22T15:29:45;18.80;82.20
20438;DHT22;17436;50.338;8.810;2022-10-22T15:32:11;18.80;82.60
20438;DHT22;17436;50.338;8.810;2022-10-22T15:34:39;18.80;78.20
20438;DHT22;17436;50.338;8.810;2022-10-22T15:37:08;18.80;82.70
20438;DHT22;17436;50.338;8.810;2022-10-22T15:39:39;18.80;85.10
20438;DHT22;17436;50.338;8.810;2022-10-22T15:42:06;18.70;90.30
20438;DHT22;17436;50.338;8.810;2022-10-22T15:44:33;18.70;90.80
20438;DHT22;17436;50.338;8.810;2022-10-22T15:47:02;18.70;91.70
20438;DHT22;17436;50.338;8.810;2022-10-22T15:49:29;18.70;91.40
20438;DHT22;17436;50.338;8.810;2022-10-22T15:51:56;18.60;91.30
20438;DHT22;17436;50.338;8.810;2022-10-22T15:54:25;18.60;90.80
20438;DHT22;17436;50.338;8.810;2022-10-22T15:56:54;18.50;90.90
20438;DHT22;17436;50.338;8.810;2022-10-22T15:59:21;18.50;91.00